createdAt,value
2022-09-14T00:02:29.646Z,81.57
2022-09-14T00:05:00.401Z,81.72
2022-09-14T00:07:31.203Z,81.90
2022-09-14T00:10:02.005Z,81.85
2022-09-14T00:12:32.673Z,81.94
2022-09-14T00:15:03.654Z,81.79
2022-09-14T00:17:34.426Z,81.95
2022-09-14T00:20:05.489Z,81.99
2022-09-14T00:22:36.124Z,82.35
2022-09-14T00:25:07.096Z,82.23
2022-09-14T00:27:37.765Z,81.83
2022-09-14T00:30:09.035Z,82.14
2022-09-14T00:32:39.851Z,81.90
2022-09-14T00:35:10.937Z,81.80
2022-09-14T00:37:42.714Z,82.18
2022-09-14T00:40:15.171Z,81.96
2022-09-14T00:42:46.068Z,81.75
2022-09-14T00:45:21.550Z,81.75
2022-09-14T00:47:55.729Z,81.75
2022-09-14T00:50:26.790Z,81.82
2022-09-14T00:52:59.605Z,81.98
2022-09-14T00:55:31.989Z,82.09
2022-09-14T00:58:03.403Z,81.65
2022-09-14T01:00:34.877Z,81.53
2022-09-14T01:03:05.681Z,81.53
2022-09-14T01:06:02.862Z,81.65
2022-09-14T01:08:46.521Z,81.62
2022-09-14T01:11:38.712Z,81.72
2022-09-14T01:14:29.732Z,81.62
2022-09-14T01:17:14.518Z,81.50
2022-09-14T01:20:23.739Z,80.93
2022-09-14T01:23:12.757Z,80.59
2022-09-14T01:25:55.537Z,81.33
2022-09-14T01:28:44.221Z,81.43
2022-09-14T01:31:30.739Z,81.20
2022-09-14T01:34:27.498Z,81.28
2022-09-14T01:37:03.889Z,81.28
2022-09-14T01:39:37.023Z,81.55
2022-09-14T01:42:09.082Z,81.48
2022-09-14T01:44:44.752Z,81.30
2022-09-14T01:47:29.205Z,80.67
2022-09-14T01:50:08.211Z,80.33
2022-09-14T01:53:08.377Z,80.08
2022-09-14T01:55:54.874Z,80.17
2022-09-14T01:58:47.189Z,80.72
2022-09-14T02:01:23.431Z,80.84
2022-09-14T02:04:02.647Z,80.22
2022-09-14T02:06:43.466Z,79.99
2022-09-14T02:09:20.434Z,79.46
2022-09-14T02:11:51.708Z,79.49
2022-09-14T02:14:22.570Z,79.10
2022-09-14T02:16:53.533Z,79.35
2022-09-14T02:19:24.826Z,79.27
2022-09-14T02:21:55.703Z,78.89
2022-09-14T02:24:27.047Z,78.50
2022-09-14T02:26:58.883Z,78.83
2022-09-14T02:29:29.763Z,78.92
2022-09-14T02:32:09.136Z,79.20
2022-09-14T02:34:53.893Z,79.36
2022-09-14T02:37:29.922Z,79.56
2022-09-14T02:40:10.374Z,79.36
2022-09-14T02:43:07.087Z,79.97
2022-09-14T02:45:46.113Z,79.71
2022-09-14T02:48:26.768Z,80.20
2022-09-14T02:51:09.837Z,80.17
2022-09-14T02:53:53.640Z,79.90
2022-09-14T02:56:27.296Z,80.46
2022-09-14T02:58:59.289Z,80.26
2022-09-14T03:01:31.160Z,80.09
2022-09-14T03:04:02.725Z,80.56
2022-09-14T03:06:35.923Z,80.47
2022-09-14T03:09:07.357Z,80.77
2022-09-14T03:11:39.162Z,80.34
2022-09-14T03:14:10.624Z,80.84
2022-09-14T03:16:43.109Z,80.44
2022-09-14T03:19:15.359Z,80.64
2022-09-14T03:21:46.869Z,80.68
2022-09-14T03:24:18.303Z,80.67
2022-09-14T03:26:50.319Z,80.33
2022-09-14T03:29:21.630Z,80.13
2022-09-14T03:31:52.495Z,79.99
2022-09-14T03:34:25.628Z,79.63
2022-09-14T03:36:56.910Z,79.92
2022-09-14T03:39:27.686Z,79.02
2022-09-14T03:41:58.658Z,79.54
2022-09-14T03:44:29.441Z,79.33
2022-09-14T03:47:00.322Z,79.05
2022-09-14T03:49:31.336Z,79.59
2022-09-14T03:52:02.077Z,79.46
2022-09-14T03:54:33.201Z,79.76
2022-09-14T03:57:03.842Z,79.21
2022-09-14T03:59:34.708Z,79.39
2022-09-14T04:02:06.163Z,79.51
2022-09-14T04:04:37.295Z,79.16
2022-09-14T04:07:08.045Z,79.00
2022-09-14T04:09:38.888Z,78.52
2022-09-14T04:12:10.101Z,78.43
2022-09-14T04:14:40.635Z,78.35
2022-09-14T04:17:11.438Z,78.58
2022-09-14T04:19:43.738Z,78.67
2022-09-14T04:22:14.559Z,78.45
2022-09-14T04:24:45.414Z,78.07
2022-09-14T04:27:16.348Z,78.09
2022-09-14T04:29:47.281Z,78.18
2022-09-14T04:32:17.913Z,78.08
2022-09-14T04:34:48.606Z,78.00
2022-09-14T04:37:19.402Z,78.14
2022-09-14T04:39:50.294Z,78.40
2022-09-14T04:42:21.017Z,78.34
2022-09-14T04:44:51.745Z,77.91
2022-09-14T04:47:22.493Z,78.35
2022-09-14T04:49:53.393Z,77.80
2022-09-14T04:52:24.695Z,78.17
2022-09-14T04:54:55.039Z,77.42
2022-09-14T04:57:25.826Z,77.79
2022-09-14T04:59:56.713Z,77.78
2022-09-14T05:02:29.610Z,77.59
2022-09-14T05:05:01.597Z,77.68
2022-09-14T05:07:32.456Z,77.59
2022-09-14T05:10:03.422Z,77.68
2022-09-14T05:12:34.304Z,77.16
2022-09-14T05:15:05.273Z,77.04
2022-09-14T05:17:38.223Z,77.35
2022-09-14T05:20:09.871Z,77.48
2022-09-14T05:22:40.679Z,77.14
2022-09-14T05:25:11.830Z,77.14
2022-09-14T05:27:43.034Z,77.25
2022-09-14T05:30:13.812Z,77.11
2022-09-14T05:32:44.557Z,77.25
2022-09-14T05:35:15.338Z,76.88
2022-09-14T05:37:45.910Z,77.00
2022-09-14T05:40:16.792Z,76.96
2022-09-14T05:42:47.554Z,76.53
2022-09-14T05:45:18.588Z,76.15
2022-09-14T05:47:49.238Z,76.46
2022-09-14T05:50:20.164Z,76.00
2022-09-14T05:52:51.831Z,76.44
2022-09-14T05:55:22.529Z,75.63
2022-09-14T05:57:54.037Z,75.79
2022-09-14T06:00:25.312Z,75.84
2022-09-14T06:02:56.538Z,76.05
2022-09-14T06:05:31.014Z,75.45
2022-09-14T06:08:01.798Z,75.56
2022-09-14T06:10:32.670Z,75.72
2022-09-14T06:13:03.786Z,75.60
2022-09-14T06:15:37.280Z,75.18
2022-09-14T06:18:07.928Z,74.99
2022-09-14T06:20:38.868Z,74.79
2022-09-14T06:23:09.581Z,74.19
2022-09-14T06:25:40.356Z,73.88
2022-09-14T06:28:11.612Z,74.33
2022-09-14T06:30:46.557Z,73.71
2022-09-14T06:33:17.384Z,74.21
2022-09-14T06:36:01.083Z,73.96
2022-09-14T06:38:32.963Z,73.52
2022-09-14T06:41:07.146Z,73.49
2022-09-14T06:43:44.149Z,73.75
2022-09-14T06:46:30.549Z,74.16
2022-09-14T06:49:11.611Z,74.05
2022-09-14T06:51:50.019Z,74.28
2022-09-14T06:54:21.735Z,74.04
2022-09-14T06:56:52.609Z,74.75
2022-09-14T06:59:23.445Z,74.09
2022-09-14T07:01:54.124Z,74.45
2022-09-14T07:04:25.108Z,74.43
2022-09-14T07:06:56.101Z,74.27
2022-09-14T07:09:27.862Z,74.44
2022-09-14T07:11:58.521Z,74.46
2022-09-14T07:14:32.253Z,74.85
2022-09-14T07:17:03.203Z,74.45
2022-09-14T07:19:34.005Z,74.89
2022-09-14T07:22:04.967Z,74.74
2022-09-14T07:24:35.719Z,74.99
2022-09-14T07:27:06.849Z,75.27
2022-09-14T07:29:37.952Z,75.29
2022-09-14T07:32:08.809Z,76.10
2022-09-14T07:34:39.563Z,75.93
2022-09-14T07:37:10.476Z,76.38
2022-09-14T07:39:41.238Z,76.99
2022-09-14T07:42:11.889Z,76.83
2022-09-14T07:44:42.754Z,77.27
2022-09-14T07:47:13.536Z,77.32
2022-09-14T07:49:44.267Z,77.47
2022-09-14T07:52:15.306Z,77.50
2022-09-14T07:54:46.043Z,77.69
2022-09-14T07:57:17.423Z,77.49
2022-09-14T07:59:47.795Z,77.73
2022-09-14T08:02:18.552Z,77.57
2022-09-14T08:04:49.206Z,77.65
2022-09-14T08:07:19.809Z,77.29
2022-09-14T08:09:50.507Z,77.91
2022-09-14T08:12:21.123Z,77.78
2022-09-14T08:14:51.653Z,78.06
2022-09-14T08:17:24.803Z,78.02
2022-09-14T08:19:55.531Z,78.39
2022-09-14T08:22:26.087Z,77.99
2022-09-14T08:24:56.603Z,78.14
2022-09-14T08:27:54.864Z,77.61
2022-09-14T08:30:25.426Z,77.61
2022-09-14T08:32:57.919Z,77.67
2022-09-14T08:35:56.554Z,78.22
2022-09-14T08:38:22.276Z,77.89
2022-09-14T08:40:54.237Z,77.75
2022-09-14T08:43:27.608Z,77.42
2022-09-14T08:46:04.758Z,77.78
2022-09-14T08:48:40.312Z,77.72
2022-09-14T08:51:10.918Z,77.42
2022-09-14T08:53:44.449Z,77.75
2022-09-14T08:56:36.443Z,77.77
2022-09-14T08:59:42.065Z,77.66
2022-09-14T09:02:36.678Z,77.78
2022-09-14T09:05:31.217Z,77.72
2022-09-14T09:08:28.880Z,77.44
2022-09-14T09:11:04.461Z,77.57
2022-09-14T09:13:40.989Z,77.53
2022-09-14T09:16:15.489Z,77.77
2022-09-14T09:18:50.616Z,77.63
2022-09-14T09:21:42.036Z,77.66
2022-09-14T09:24:24.362Z,77.61
2022-09-14T09:26:55.054Z,77.61
2022-09-14T13:02:25.120Z,81.30
2022-09-14T13:05:06.727Z,81.12
2022-09-14T13:07:44.139Z,81.66
2022-09-14T13:10:46.219Z,81.26
2022-09-14T13:13:23.943Z,81.55
2022-09-14T13:15:59.100Z,81.17
2022-09-14T13:18:40.960Z,81.05
2022-09-14T13:21:26.192Z,80.36
2022-09-14T13:23:58.321Z,80.22
2022-09-14T13:26:34.024Z,80.28
2022-09-14T13:29:12.537Z,80.13
2022-09-14T13:31:44.711Z,79.73
2022-09-14T13:34:31.953Z,79.97
2022-09-14T13:37:04.284Z,80.05
2022-09-14T13:39:43.302Z,80.12
2022-09-14T13:42:15.230Z,80.47
2022-09-14T13:44:51.758Z,80.01
2022-09-14T13:47:26.641Z,79.82
2022-09-14T13:50:00.031Z,79.77
2022-09-14T13:55:46.858Z,79.76
2022-09-14T13:58:26.358Z,79.78
2022-09-14T14:01:06.293Z,79.98
2022-09-14T14:03:52.319Z,80.50
2022-09-14T14:06:40.312Z,80.30
2022-09-14T14:09:13.640Z,80.18
2022-09-14T14:11:55.216Z,80.13
2022-09-14T14:14:31.873Z,80.62
2022-09-14T14:17:24.908Z,80.75
2022-09-14T14:20:00.948Z,80.65
2022-09-14T14:22:37.869Z,80.96
2022-09-14T14:25:34.303Z,80.53
2022-09-14T14:28:09.342Z,80.49
2022-09-14T14:30:45.343Z,80.78
2022-09-14T14:33:23.540Z,80.67
2022-09-14T14:35:58.367Z,80.74
2022-09-14T14:38:34.653Z,81.02
2022-09-14T14:41:08.137Z,81.19
2022-09-14T14:43:43.960Z,81.41
2022-09-14T14:46:17.674Z,81.08
2022-09-14T14:48:48.707Z,80.83
2022-09-14T14:51:21.051Z,81.16
2022-09-14T14:53:54.873Z,80.67
2022-09-14T14:56:27.492Z,81.14
2022-09-14T14:59:02.086Z,80.73
2022-09-14T15:01:33.255Z,81.14
2022-09-14T15:04:05.669Z,80.97
2022-09-14T15:06:36.426Z,80.86
2022-09-14T15:09:12.337Z,80.94
2022-09-14T15:11:46.215Z,81.03
2022-09-14T15:14:18.884Z,81.00
2022-09-14T15:16:50.100Z,80.96
2022-09-14T15:19:20.900Z,80.74
2022-09-14T15:21:51.511Z,80.73
2022-09-14T15:24:22.317Z,81.10
2022-09-14T15:26:53.275Z,81.26
2022-09-14T15:29:24.195Z,81.21
2022-09-14T15:31:56.837Z,81.48
2022-09-14T15:34:28.274Z,81.33
2022-09-14T15:37:02.695Z,81.33
2022-09-14T15:39:36.624Z,81.70
2022-09-14T15:42:16.087Z,81.35
2022-09-14T15:44:49.332Z,81.53
2022-09-14T15:47:20.636Z,81.51
2022-09-14T15:49:53.649Z,81.27
2022-09-14T15:52:24.952Z,81.35
2022-09-14T15:54:57.698Z,81.61
2022-09-14T15:57:28.680Z,81.67
2022-09-14T15:59:59.619Z,81.58
2022-09-14T16:02:30.481Z,81.49
2022-09-14T16:05:01.489Z,81.52
2022-09-14T16:07:32.550Z,81.49
2022-09-14T16:10:03.333Z,81.61
2022-09-14T16:12:34.214Z,81.60
2022-09-14T16:15:05.181Z,81.44
2022-09-14T16:17:36.013Z,81.20
2022-09-14T16:20:08.602Z,81.68
2022-09-14T16:22:39.970Z,81.71
2022-09-14T16:25:10.908Z,81.88
2022-09-14T16:27:42.040Z,81.47
2022-09-14T16:30:13.431Z,81.71
2022-09-14T16:32:43.713Z,81.82
2022-09-14T16:35:14.469Z,81.72
2022-09-14T16:37:45.241Z,81.81
2022-09-14T16:40:16.482Z,81.74
2022-09-14T16:42:49.577Z,81.47
2022-09-14T16:45:20.354Z,81.61
2022-09-14T16:47:51.039Z,81.56
2022-09-14T16:50:21.711Z,81.52
2022-09-14T16:52:52.385Z,81.62
2022-09-14T16:55:23.133Z,81.35
2022-09-14T16:57:53.928Z,81.42
2022-09-14T17:00:24.748Z,81.44
2022-09-14T17:02:55.701Z,81.38
2022-09-14T17:05:26.501Z,81.73
2022-09-14T17:07:57.420Z,81.41
2022-09-14T17:10:28.121Z,81.60
2022-09-14T17:12:58.843Z,81.56
2022-09-14T17:15:29.613Z,81.57
2022-09-14T17:18:00.315Z,81.75
2022-09-14T17:20:31.220Z,82.05
2022-09-14T17:23:01.871Z,81.96
2022-09-14T17:25:32.644Z,82.12
2022-09-14T17:28:03.464Z,82.07
2022-09-14T17:30:34.167Z,81.70
2022-09-14T17:33:04.649Z,81.88
2022-09-14T17:35:35.318Z,81.78
2022-09-14T17:38:06.018Z,81.46
2022-09-14T17:40:36.769Z,81.67
2022-09-14T17:43:07.561Z,81.72
2022-09-14T17:45:38.250Z,81.61
2022-09-14T17:48:10.034Z,81.83
2022-09-14T17:50:42.630Z,81.62
2022-09-14T17:53:13.829Z,81.83
2022-09-14T17:55:45.419Z,81.85
2022-09-14T17:58:19.717Z,82.01
2022-09-14T18:00:51.040Z,81.65
2022-09-14T18:03:22.617Z,81.89
2022-09-14T18:05:57.470Z,81.97
2022-09-14T18:08:28.145Z,82.27
2022-09-14T18:10:59.044Z,81.96
2022-09-14T18:13:29.719Z,81.96
2022-09-14T18:16:00.946Z,81.96
2022-09-14T18:18:31.396Z,81.92
2022-09-14T18:21:03.756Z,81.75
2022-09-14T18:23:34.845Z,81.93
2022-09-14T18:26:07.563Z,82.12
2022-09-14T18:28:39.433Z,81.93
2022-09-14T18:31:12.776Z,82.22
2022-09-14T18:33:49.007Z,81.97
2022-09-14T18:36:20.074Z,82.10
2022-09-14T18:38:51.308Z,81.96
2022-09-14T18:41:22.290Z,82.27
2022-09-14T18:43:54.997Z,82.02
2022-09-14T18:46:28.053Z,82.15
2022-09-14T18:49:02.169Z,82.12
2022-09-14T18:51:34.229Z,82.14
2022-09-14T18:54:07.822Z,82.08
2022-09-14T18:56:40.897Z,82.11
2022-09-14T18:59:14.934Z,82.41
2022-09-14T19:01:46.172Z,82.07
2022-09-14T19:04:18.366Z,82.04
2022-09-14T19:06:53.890Z,82.02
2022-09-14T19:09:24.570Z,81.81
2022-09-14T19:11:55.331Z,81.78
2022-09-14T19:14:26.243Z,81.71
2022-09-14T19:17:00.323Z,81.72
2022-09-14T19:19:31.090Z,81.84
2022-09-14T19:22:01.933Z,81.97
2022-09-14T19:24:35.764Z,81.92
2022-09-14T19:27:06.939Z,81.95
2022-09-14T19:29:38.114Z,82.03
2022-09-14T19:32:10.683Z,81.94
2022-09-14T19:34:41.465Z,82.04
2022-09-14T19:37:12.195Z,81.97
2022-09-14T19:39:44.979Z,82.09
2022-09-14T19:42:15.880Z,82.05
2022-09-14T19:44:46.620Z,82.00
2022-09-14T19:47:17.485Z,81.79
2022-09-14T19:49:48.261Z,82.26
2022-09-14T19:52:19.006Z,82.11
2022-09-14T19:54:49.629Z,82.06
2022-09-14T19:57:20.359Z,82.03
2022-09-14T19:59:51.200Z,81.94
2022-09-14T20:02:22.136Z,82.04
2022-09-14T20:04:52.773Z,82.16
2022-09-14T20:07:23.590Z,82.10
2022-09-14T20:09:54.334Z,82.21
2022-09-14T20:12:25.290Z,81.83
2022-09-14T20:14:56.023Z,82.10
2022-09-14T20:17:26.675Z,81.89
2022-09-14T20:19:57.563Z,81.78
2022-09-14T20:22:28.421Z,82.17
2022-09-14T20:24:59.318Z,82.15
2022-09-14T20:27:30.106Z,82.19
2022-09-14T20:30:00.877Z,82.06
2022-09-14T20:32:32.854Z,81.93
2022-09-14T20:35:03.626Z,82.18
2022-09-14T20:37:34.567Z,82.11
2022-09-14T20:40:06.032Z,82.16
2022-09-14T20:42:36.876Z,82.25
2022-09-14T20:45:07.856Z,82.21
2022-09-14T20:47:39.145Z,82.14
2022-09-14T20:50:10.089Z,82.21
2022-09-14T20:52:41.085Z,81.95
2022-09-14T20:55:12.513Z,81.85
2022-09-14T20:57:43.414Z,81.76
2022-09-14T21:00:15.277Z,81.68
2022-09-14T21:02:46.116Z,81.55
2022-09-14T21:05:16.888Z,81.29
2022-09-14T21:07:56.313Z,81.07
2022-09-14T21:10:29.595Z,80.77
2022-09-14T21:13:00.646Z,80.56
2022-09-14T21:15:31.625Z,80.42
2022-09-14T21:18:05.273Z,80.19
2022-09-14T21:20:39.317Z,80.18
2022-09-14T21:23:10.085Z,79.93
2022-09-14T21:25:40.794Z,79.97
2022-09-14T21:28:11.728Z,79.52
2022-09-14T21:30:42.520Z,79.21
2022-09-14T21:33:12.989Z,79.27
2022-09-14T21:35:43.781Z,79.07
2022-09-14T21:38:14.629Z,78.81
2022-09-14T21:40:48.063Z,79.23
2022-09-14T21:43:19.016Z,79.17
2022-09-14T21:45:49.722Z,78.97
2022-09-14T21:48:20.948Z,78.77
2022-09-14T21:50:51.648Z,78.92
2022-09-14T21:53:22.242Z,78.79
2022-09-14T21:55:53.109Z,78.85
2022-09-14T21:58:23.795Z,79.03
2022-09-14T22:01:05.487Z,78.81
2022-09-14T22:03:36.816Z,78.75
2022-09-14T22:06:09.159Z,78.79
2022-09-14T22:08:40.429Z,78.62
2022-09-14T22:11:23.043Z,78.76
2022-09-14T22:14:02.600Z,78.91
2022-09-14T22:16:38.455Z,78.47
2022-09-14T22:19:14.443Z,78.70
2022-09-14T22:21:45.089Z,78.66
2022-09-14T22:24:38.385Z,78.74
2022-09-14T22:27:12.223Z,79.15
2022-09-14T22:29:43.873Z,79.05
2022-09-14T22:32:15.286Z,79.08
2022-09-14T22:34:49.439Z,79.26
2022-09-14T22:37:20.430Z,78.38
2022-09-14T22:39:51.463Z,77.99
2022-09-14T22:42:23.723Z,78.20
2022-09-14T22:44:54.704Z,78.34
2022-09-14T22:47:25.359Z,78.04
2022-09-14T22:49:56.502Z,78.30
2022-09-14T22:52:27.046Z,77.96
2022-09-14T22:54:59.321Z,77.69
2022-09-14T22:57:30.106Z,77.47
2022-09-14T23:00:00.924Z,77.87
2022-09-14T23:02:32.015Z,77.61
2022-09-14T23:05:26.897Z,77.83
2022-09-14T23:07:58.775Z,77.83
2022-09-14T23:10:29.558Z,77.54
2022-09-14T23:13:01.973Z,77.81
2022-09-14T23:15:32.756Z,77.65
2022-09-14T23:18:03.432Z,77.66
2022-09-14T23:20:34.727Z,78.14
2022-09-14T23:23:04.965Z,78.00
2022-09-14T23:25:40.120Z,77.89
2022-09-14T23:28:13.579Z,78.00
2022-09-14T23:30:44.311Z,78.15
2022-09-14T23:33:14.969Z,78.36
2022-09-14T23:35:50.232Z,78.20
2022-09-14T23:38:20.972Z,78.40
2022-09-14T23:40:52.523Z,78.60
2022-09-14T23:43:23.613Z,78.55
2022-09-14T23:45:54.282Z,78.41
2022-09-14T23:48:25.522Z,78.74
2022-09-14T23:51:15.538Z,78.77
2022-09-14T23:53:46.763Z,78.53
2022-09-14T23:56:18.231Z,78.57
2022-09-14T23:58:48.494Z,78.96
